Nautilus Survey — LIXR — position and weather

sailwx.info

Track history (hours):
 
Tides and Currents Weather Stations Pressure Air Temp Water Temp Dewpoint Dewpoint Depression Visibility Wind Speed Wind Dir Waves Ship Positions

Nautilus Survey

Last reported at 2014-Aug-22 07:33 UTC. Time now 2014-Aug-22 07:57 UTC.
Position N 66°22' E 012°23'.

Length 22 m; draft 2 m.

Type: Dredging. MMSI: 259464000.

Date/timePositionNaut miles runAvg speedWind from/ knotsBaromVisibWave heightAir tempDewpointWater temp
2014-Aug-22 07:33N 66°22' E 012°23'0 0.2
2014-Aug-22 06:33N 66°22' E 012°22'0 0.0
2014-Aug-22 05:33N 66°22' E 012°22'0 0.0
2014-Aug-22 04:33N 66°22' E 012°22'0 0.0
2014-Aug-22 03:33N 66°22' E 012°22'0 0.0
2014-Aug-22 02:33N 66°22' E 012°22'0 0.0
2014-Aug-22 01:33N 66°22' E 012°22'0 0.0
2014-Aug-22 00:33N 66°22' E 012°22'0 0.0
2014-Aug-21 23:33N 66°22' E 012°22'0 0.0
2014-Aug-21 22:33N 66°22' E 012°22'0 0.0
2014-Aug-21 21:33N 66°22' E 012°22'0 0.0
2014-Aug-21 20:33N 66°22' E 012°22'0 0.0
2014-Aug-21 19:33N 66°22' E 012°22'0 0.0
2014-Aug-21 18:33N 66°22' E 012°22'0 0.0
2014-Aug-21 17:33N 66°22' E 012°22'0 0.0
2014-Aug-21 16:33N 66°22' E 012°22'0 0.1
2014-Aug-21 15:33N 66°22' E 012°22'0 0.3
2014-Aug-21 14:33N 66°22' E 012°23'0 0.2
2014-Aug-21 13:33N 66°22' E 012°23'0 0.3
2014-Aug-21 12:33N 66°22' E 012°23'0 0.0
2014-Aug-21 11:33N 66°22' E 012°23'0 0.3
2014-Aug-21 10:33N 66°22' E 012°23'0 0.0
2014-Aug-21 09:33N 66°22' E 012°23'0 0.0
2014-Aug-21 08:33N 66°22' E 012°23'0 0.5
2014-Aug-21 07:34N 66°22' E 012°22'0 0.1
2014-Aug-21 06:33N 66°22' E 012°22'0 0.0
2014-Aug-21 05:33N 66°22' E 012°22'0 0.0
2014-Aug-21 04:33N 66°22' E 012°22'0 0.0
2014-Aug-21 03:33N 66°22' E 012°22'0 0.0
2014-Aug-21 02:33N 66°22' E 012°22'0 0.0
2014-Aug-21 01:33N 66°22' E 012°22'0 0.0
2014-Aug-21 00:33N 66°22' E 012°22'0 0.0
2014-Aug-20 23:33N 66°22' E 012°22'0 0.0
2014-Aug-20 22:33N 66°22' E 012°22'0 0.0
2014-Aug-20 21:33N 66°22' E 012°22'0 0.0
2014-Aug-20 20:33N 66°22' E 012°22'0 0.0
2014-Aug-20 19:33N 66°22' E 012°22'0 0.0
2014-Aug-20 18:33N 66°22' E 012°22'0 0.0
2014-Aug-20 17:33N 66°22' E 012°22'0 0.0
2014-Aug-20 16:33N 66°22' E 012°22'0 0.4
2014-Aug-20 15:34N 66°22' E 012°23'0 0.1
2014-Aug-20 14:33N 66°22' E 012°23'0 0.2
2014-Aug-20 13:33N 66°22' E 012°23'0 0.1
2014-Aug-20 12:33N 66°22' E 012°23'0 0.0
2014-Aug-20 11:33N 66°22' E 012°23'0 0.0
2014-Aug-20 10:33N 66°22' E 012°23'0 0.2
2014-Aug-20 09:33N 66°22' E 012°23'3 3.1
2014-Aug-20 08:33N 66°19' E 012°23'9 9.2
2014-Aug-20 07:33N 66°10' E 012°25'81 3.2
2014-Aug-19 06:33N 64°54' E 011°20'4 3.5
2014-Aug-19 05:33N 64°52' E 011°14'0 0.0
2014-Aug-19 04:33N 64°52' E 011°14'0 0.0
2014-Aug-19 03:33N 64°52' E 011°14'0 0.0
2014-Aug-19 02:33N 64°52' E 011°14'0 0.0
2014-Aug-19 01:33N 64°52' E 011°14'0 0.0
2014-Aug-19 00:34N 64°52' E 011°14'0 0.0
2014-Aug-18 23:33N 64°52' E 011°14'0 0.0
2014-Aug-18 22:33N 64°52' E 011°14'0 0.0
2014-Aug-18 21:33N 64°52' E 011°14'0 0.0
2014-Aug-18 20:33N 64°52' E 011°14'0 0.0
2014-Aug-18 19:33N 64°52' E 011°14'1 1.3
2014-Aug-18 18:33N 64°52' E 011°17'2 2.1
2014-Aug-18 17:34N 64°54' E 011°19'8 7.3
2014-Aug-18 16:32N 64°60' E 011°29'88 3.0
2014-Aug-17 11:33N 66°20' E 012°59'4 0.2
2014-Aug-16 15:26N 66°18' E 012°52'5 5.9
2014-Aug-16 14:32N 66°20' E 012°39'0 0.1
2014-Aug-16 13:33N 66°19' E 012°39'3 3.5
2014-Aug-16 12:33N 66°23' E 012°39'4 3.9
2014-Aug-16 11:33N 66°21' E 012°47'3 2.6
2014-Aug-16 10:33N 66°19' E 012°43'9 9.3
2014-Aug-16 09:34N 66°12' E 012°27'  
2014-Aug-13 17:22N 66°16' E 012°39'4 3.0
2014-Aug-13 16:08N 66°20' E 012°39'0 0.0
2014-Aug-13 15:30N 66°19' E 012°39'0 0.1
2014-Aug-13 14:33N 66°20' E 012°39'0 0.2
2014-Aug-13 13:33N 66°19' E 012°39'2 2.5
2014-Aug-13 12:33N 66°17' E 012°38'11 0.4
2014-Aug-12 09:33N 66°24' E 012°58'  
Track history (hours):
 
Tides and Currents Weather Stations Pressure Air Temp Water Temp Dewpoint Dewpoint Depression Visibility Wind Speed Wind Dir Waves Ship Positions

Nautilus Survey

Last reported at 2014-Aug-22 07:33 UTC. Time now 2014-Aug-22 07:57 UTC.
Position N 66°22' E 012°23'.

Length 22 m; draft 2 m.

Type: Dredging. MMSI: 259464000.

Date/timePositionNaut miles runAvg speedWind from/ knotsBaromVisibWave heightAir tempDewpointWater temp
2014-Aug-22 07:33N 66°22' E 012°23'0 0.2
2014-Aug-22 06:33N 66°22' E 012°22'0 0.0
2014-Aug-22 05:33N 66°22' E 012°22'0 0.0
2014-Aug-22 04:33N 66°22' E 012°22'0 0.0
2014-Aug-22 03:33N 66°22' E 012°22'0 0.0
2014-Aug-22 02:33N 66°22' E 012°22'0 0.0
2014-Aug-22 01:33N 66°22' E 012°22'0 0.0
2014-Aug-22 00:33N 66°22' E 012°22'0 0.0
2014-Aug-21 23:33N 66°22' E 012°22'0 0.0
2014-Aug-21 22:33N 66°22' E 012°22'0 0.0
2014-Aug-21 21:33N 66°22' E 012°22'0 0.0
2014-Aug-21 20:33N 66°22' E 012°22'0 0.0
2014-Aug-21 19:33N 66°22' E 012°22'0 0.0
2014-Aug-21 18:33N 66°22' E 012°22'0 0.0
2014-Aug-21 17:33N 66°22' E 012°22'0 0.0
2014-Aug-21 16:33N 66°22' E 012°22'0 0.1
2014-Aug-21 15:33N 66°22' E 012°22'0 0.3
2014-Aug-21 14:33N 66°22' E 012°23'0 0.2
2014-Aug-21 13:33N 66°22' E 012°23'0 0.3
2014-Aug-21 12:33N 66°22' E 012°23'0 0.0
2014-Aug-21 11:33N 66°22' E 012°23'0 0.3
2014-Aug-21 10:33N 66°22' E 012°23'0 0.0
2014-Aug-21 09:33N 66°22' E 012°23'0 0.0
2014-Aug-21 08:33N 66°22' E 012°23'0 0.5
2014-Aug-21 07:34N 66°22' E 012°22'0 0.1
2014-Aug-21 06:33N 66°22' E 012°22'0 0.0
2014-Aug-21 05:33N 66°22' E 012°22'0 0.0
2014-Aug-21 04:33N 66°22' E 012°22'0 0.0
2014-Aug-21 03:33N 66°22' E 012°22'0 0.0
2014-Aug-21 02:33N 66°22' E 012°22'0 0.0
2014-Aug-21 01:33N 66°22' E 012°22'0 0.0
2014-Aug-21 00:33N 66°22' E 012°22'0 0.0
2014-Aug-20 23:33N 66°22' E 012°22'0 0.0
2014-Aug-20 22:33N 66°22' E 012°22'0 0.0
2014-Aug-20 21:33N 66°22' E 012°22'0 0.0
2014-Aug-20 20:33N 66°22' E 012°22'0 0.0
2014-Aug-20 19:33N 66°22' E 012°22'0 0.0
2014-Aug-20 18:33N 66°22' E 012°22'0 0.0
2014-Aug-20 17:33N 66°22' E 012°22'0 0.0
2014-Aug-20 16:33N 66°22' E 012°22'0 0.4
2014-Aug-20 15:34N 66°22' E 012°23'0 0.1
2014-Aug-20 14:33N 66°22' E 012°23'0 0.2
2014-Aug-20 13:33N 66°22' E 012°23'0 0.1
2014-Aug-20 12:33N 66°22' E 012°23'0 0.0
2014-Aug-20 11:33N 66°22' E 012°23'0 0.0
2014-Aug-20 10:33N 66°22' E 012°23'0 0.2
2014-Aug-20 09:33N 66°22' E 012°23'3 3.1
2014-Aug-20 08:33N 66°19' E 012°23'9 9.2
2014-Aug-20 07:33N 66°10' E 012°25'81 3.2
2014-Aug-19 06:33N 64°54' E 011°20'4 3.5
2014-Aug-19 05:33N 64°52' E 011°14'0 0.0
2014-Aug-19 04:33N 64°52' E 011°14'0 0.0
2014-Aug-19 03:33N 64°52' E 011°14'0 0.0
2014-Aug-19 02:33N 64°52' E 011°14'0 0.0
2014-Aug-19 01:33N 64°52' E 011°14'0 0.0
2014-Aug-19 00:34N 64°52' E 011°14'0 0.0
2014-Aug-18 23:33N 64°52' E 011°14'0 0.0
2014-Aug-18 22:33N 64°52' E 011°14'0 0.0
2014-Aug-18 21:33N 64°52' E 011°14'0 0.0
2014-Aug-18 20:33N 64°52' E 011°14'0 0.0
2014-Aug-18 19:33N 64°52' E 011°14'1 1.3
2014-Aug-18 18:33N 64°52' E 011°17'2 2.1
2014-Aug-18 17:34N 64°54' E 011°19'8 7.3
2014-Aug-18 16:32N 64°60' E 011°29'88 3.0
2014-Aug-17 11:33N 66°20' E 012°59'4 0.2
2014-Aug-16 15:26N 66°18' E 012°52'5 5.9
2014-Aug-16 14:32N 66°20' E 012°39'0 0.1
2014-Aug-16 13:33N 66°19' E 012°39'3 3.5
2014-Aug-16 12:33N 66°23' E 012°39'4 3.9
2014-Aug-16 11:33N 66°21' E 012°47'3 2.6
2014-Aug-16 10:33N 66°19' E 012°43'9 9.3
2014-Aug-16 09:34N 66°12' E 012°27'  
2014-Aug-13 17:22N 66°16' E 012°39'4 3.0
2014-Aug-13 16:08N 66°20' E 012°39'0 0.0
2014-Aug-13 15:30N 66°19' E 012°39'0 0.1
2014-Aug-13 14:33N 66°20' E 012°39'0 0.2
2014-Aug-13 13:33N 66°19' E 012°39'2 2.5
2014-Aug-13 12:33N 66°17' E 012°38'11 0.4
2014-Aug-12 09:33N 66°24' E 012°58'  

Dump ship's entire track history